Time;durP1;ratioP1;P1;durP2;ratioP2;P2;SDS_P1;SDS_P2;PMS_P1;PMS_P2;Temp;Humidity;BMP_temperature;BMP_pressure;BME280_temperature;BME280_humidity;BME280_pressure;Samples;Min_cycle;Max_cycle;Signal;HPM_P1;HPM_P2
2021/03/10 00:00:14;;;;;;;89.03;56.58;;;;;;;-1.46;55.64;100829.06;128234;1100;22490;-72
2021/03/10 00:03:03;;;;;;;86.90;58.17;;;;;;;-1.47;56.06;100827.37;128015;1101;22517;-73
2021/03/10 00:05:31;;;;;;;96.50;61.20;;;;;;;-1.44;56.11;100831.56;128131;1101;22515;-76
2021/03/10 00:07:59;;;;;;;85.47;55.43;;;;;;;-1.44;56.30;100840.17;128009;1101;22519;-76
2021/03/10 00:10:27;;;;;;;87.40;58.00;;;;;;;-1.45;56.33;100846.28;128171;1101;24597;-76
2021/03/10 00:12:56;;;;;;;91.53;59.60;;;;;;;-1.49;56.27;100844.77;127974;1101;22494;-76
2021/03/10 00:15:24;;;;;;;90.95;57.80;;;;;;;-1.54;56.19;100841.56;127961;1101;24575;-76
2021/03/10 00:17:52;;;;;;;94.22;59.85;;;;;;;-1.57;56.34;100846.90;128202;1100;22592;-73
2021/03/10 00:20:20;;;;;;;101.15;58.87;;;;;;;-1.60;56.32;100849.67;128199;1101;24439;-72
2021/03/10 00:22:49;;;;;;;99.92;59.20;;;;;;;-1.60;56.48;100843.63;128190;1100;22523;-72
2021/03/10 00:25:18;;;;;;;89.37;55.63;;;;;;;-1.59;56.47;100850.50;128179;1101;22493;-72
2021/03/10 00:27:46;;;;;;;87.22;56.18;;;;;;;-1.60;56.48;100838.45;127944;1101;22498;-72
2021/03/10 00:30:16;;;;;;;90.35;58.33;;;;;;;-1.61;56.77;100847.98;128148;1101;24575;-72
2021/03/10 00:32:44;;;;;;;83.00;55.25;;;;;;;-1.64;56.73;100839.52;128215;1101;22492;-72
2021/03/10 00:35:28;;;;;;;92.70;57.85;;;;;;;-1.65;56.69;100841.28;128121;1101;22509;-71
2021/03/10 00:38:01;;;;;;;90.00;56.90;;;;;;;-1.66;56.74;100839.62;128024;1101;22499;-72
2021/03/10 00:40:30;;;;;;;95.87;60.08;;;;;;;-1.66;57.24;100842.20;128283;1100;22487;-72
2021/03/10 00:42:58;;;;;;;88.80;56.95;;;;;;;-1.66;57.22;100837.86;128190;1101;22525;-72
2021/03/10 00:45:26;;;;;;;87.92;57.48;;;;;;;-1.64;56.87;100840.36;127980;1101;22506;-71
2021/03/10 00:47:58;;;;;;;84.58;55.35;;;;;;;-1.66;56.98;100835.27;128143;1099;24578;-73
2021/03/10 00:50:28;;;;;;;89.75;59.03;;;;;;;-1.68;57.17;100833.66;128003;1101;22601;-71
2021/03/10 00:52:57;;;;;;;89.95;60.78;;;;;;;-1.74;56.84;100829.62;128018;1100;25082;-72
2021/03/10 00:55:28;;;;;;;100.30;67.10;;;;;;;-1.77;57.12;100831.53;128198;1101;24334;-71
2021/03/10 00:57:56;;;;;;;103.60;67.85;;;;;;;-1.79;57.13;100825.61;127960;1099;23658;-72
2021/03/10 01:00:24;;;;;;;98.60;67.05;;;;;;;-1.78;57.50;100829.86;127950;1101;22566;-71
2021/03/10 01:02:53;;;;;;;98.27;68.22;;;;;;;-1.75;57.68;100838.31;127956;1101;22598;-71
2021/03/10 01:05:21;;;;;;;106.58;72.08;;;;;;;-1.73;57.70;100828.73;127965;1101;22601;-72
2021/03/10 01:07:49;;;;;;;103.20;74.30;;;;;;;-1.70;57.71;100825.12;127905;1101;22464;-71
2021/03/10 01:10:18;;;;;;;101.27;72.20;;;;;;;-1.73;57.49;100818.37;127984;1101;22516;-72
2021/03/10 01:12:46;;;;;;;100.82;71.80;;;;;;;-1.74;57.45;100818.42;127938;1101;23333;-71
2021/03/10 01:15:18;;;;;;;102.72;67.58;;;;;;;-1.80;57.46;100818.73;127971;1101;22502;-71
2021/03/10 01:17:48;;;;;;;106.20;65.80;;;;;;;-1.85;57.81;100813.80;128008;1101;22497;-72
2021/03/10 01:20:20;;;;;;;103.30;67.35;;;;;;;-1.86;57.92;100819.90;128040;1101;22492;-72
2021/03/10 01:22:48;;;;;;;93.37;64.10;;;;;;;-1.87;57.63;100818.20;128002;1099;22594;-72
2021/03/10 01:25:19;;;;;;;98.55;65.05;;;;;;;-1.87;58.03;100812.19;127956;1101;22523;-72
2021/03/10 01:27:47;;;;;;;99.47;65.70;;;;;;;-1.86;58.14;100812.12;127976;1101;24595;-72
2021/03/10 01:30:17;;;;;;;104.63;64.72;;;;;;;-1.86;58.11;100811.30;128138;1099;24313;-72
2021/03/10 01:32:45;;;;;;;103.90;65.00;;;;;;;-1.87;57.99;100810.43;128250;1101;24833;-72
2021/03/10 01:35:14;;;;;;;104.90;62.95;;;;;;;-1.87;57.88;100813.02;128143;1101;24338;-72
2021/03/10 01:37:42;;;;;;;99.42;62.93;;;;;;;-1.88;58.16;100803.59;127966;1101;22715;-71
2021/03/10 01:40:14;;;;;;;100.07;64.45;;;;;;;-1.87;58.19;100802.66;128033;1100;22520;-71
2021/03/10 01:42:44;;;;;;;105.07;65.17;;;;;;;-1.88;58.07;100806.18;128114;1101;22598;-72
2021/03/10 01:45:15;;;;;;;113.60;66.70;;;;;;;-1.91;58.04;100809.75;128039;1101;22498;-72
2021/03/10 01:47:46;;;;;;;99.58;63.75;;;;;;;-1.94;58.14;100807.31;128229;1101;24354;-71
2021/03/10 01:50:19;;;;;;;135.40;79.95;;;;;;;-1.96;58.25;100809.16;128028;1101;22573;-71
2021/03/10 01:52:48;;;;;;;148.60;86.02;;;;;;;-2.00;58.24;100804.19;128068;1100;22566;-71
2021/03/10 01:55:16;;;;;;;115.52;73.02;;;;;;;-2.03;57.99;100807.80;128019;1101;22565;-71
2021/03/10 01:57:46;;;;;;;91.55;62.03;;;;;;;-2.05;58.22;100809.61;128018;1099;22491;-71
2021/03/10 02:00:16;;;;;;;88.07;54.42;;;;;;;-2.07;58.48;100795.89;128011;1099;25103;-71
2021/03/10 02:02:45;;;;;;;97.60;60.08;;;;;;;-2.07;58.87;100806.25;128389;1099;22485;-71
2021/03/10 02:05:19;;;;;;;100.18;64.25;;;;;;;-2.08;58.72;100799.41;128033;1100;22924;-71
2021/03/10 02:07:59;;;;;;;83.92;55.08;;;;;;;-2.08;58.56;100804.58;128377;1101;24411;-72
2021/03/10 02:10:59;;;;;;;80.95;54.42;;;;;;;-2.12;58.76;100797.05;128279;1100;22960;-71
2021/03/10 02:13:39;;;;;;;75.12;50.80;;;;;;;-2.15;58.97;100803.21;128183;1100;22571;-72
2021/03/10 02:16:32;;;;;;;85.45;57.23;;;;;;;-2.18;59.02;100801.61;128168;1099;22533;-72
2021/03/10 02:19:36;;;;;;;;;;;;;;;-2.26;58.49;100800.33;128186;1101;23031;-72
2021/03/10 02:22:16;;;;;;;83.92;50.83;;;;;;;-2.44;58.98;100799.45;128179;1100;21315;-73
2021/03/10 02:25:20;;;;;;;79.75;55.55;;;;;;;-2.53;59.09;100797.29;127974;1100;22522;-72
2021/03/10 02:27:52;;;;;;;85.12;50.23;;;;;;;-2.60;59.25;100807.09;127998;1101;23159;-71
2021/03/10 02:30:24;;;;;;;86.70;53.00;;;;;;;-2.65;59.52;100794.39;128003;1099;22488;-72
2021/03/10 02:32:57;;;;;;;82.45;52.58;;;;;;;-2.66;59.35;100795.31;128118;1101;24609;-73
2021/03/10 02:35:27;;;;;;;84.17;54.70;;;;;;;-2.67;59.79;100791.02;128334;1100;22526;-72
2021/03/10 02:38:08;;;;;;;94.47;59.03;;;;;;;-2.69;59.71;100797.20;128009;1101;22510;-72
2021/03/10 02:40:39;;;;;;;102.50;62.20;;;;;;;-2.72;59.92;100797.34;128231;1099;24351;-72
2021/03/10 02:43:09;;;;;;;98.52;62.15;;;;;;;-2.73;59.95;100795.64;127958;1101;24577;-72
2021/03/10 02:45:38;;;;;;;99.85;61.60;;;;;;;-2.75;60.16;100784.56;127980;1100;22977;-72
2021/03/10 02:48:10;;;;;;;92.27;55.67;;;;;;;-2.74;60.12;100793.98;127927;1101;22496;-72
2021/03/10 02:50:40;;;;;;;84.17;56.02;;;;;;;-2.76;60.20;100793.23;128207;1099;22495;-72
2021/03/10 02:53:09;;;;;;;93.67;57.73;;;;;;;-2.76;60.19;100791.48;127945;1101;22620;-72
2021/03/10 02:55:39;;;;;;;90.00;56.48;;;;;;;-2.77;60.41;100789.78;127924;1101;22532;-73
2021/03/10 02:58:11;;;;;;;89.57;56.50;;;;;;;-2.78;60.47;100788.12;127969;1101;24710;-73
2021/03/10 03:00:41;;;;;;;90.42;55.35;;;;;;;-2.77;60.29;100794.13;127992;1101;22576;-73
2021/03/10 03:03:10;;;;;;;90.87;58.33;;;;;;;-2.74;60.53;100799.16;127994;1101;22504;-72
2021/03/10 03:05:39;;;;;;;90.22;59.00;;;;;;;-2.72;60.58;100792.17;127983;1101;24575;-73
2021/03/10 03:08:08;;;;;;;92.85;61.18;;;;;;;-2.69;60.59;100792.03;127948;1101;24344;-73
2021/03/10 03:10:39;;;;;;;93.65;56.60;;;;;;;-2.68;60.40;100793.70;128029;1101;22567;-73
2021/03/10 03:13:11;;;;;;;100.10;60.73;;;;;;;-2.66;60.38;100797.06;127991;1101;24436;-73
2021/03/10 03:15:41;;;;;;;89.00;59.83;;;;;;;-2.66;60.17;100797.06;128227;1099;22623;-73
2021/03/10 03:18:11;;;;;;;90.10;58.08;;;;;;;-2.68;60.44;100802.29;128060;1101;23126;-72
2021/03/10 03:20:39;;;;;;;100.05;63.00;;;;;;;-2.66;60.58;100799.65;128224;1101;22506;-73
2021/03/10 03:23:09;;;;;;;94.15;62.05;;;;;;;-2.72;60.42;100797.34;128137;1101;22523;-72
2021/03/10 03:25:41;;;;;;;88.07;58.25;;;;;;;-2.75;60.50;100800.91;127937;1101;22495;-72
2021/03/10 03:28:14;;;;;;;97.67;63.35;;;;;;;-2.81;60.37;100797.77;127990;1100;22502;-74
2021/03/10 03:30:44;;;;;;;94.30;63.08;;;;;;;-2.89;60.43;100795.55;128189;1101;22496;-73
2021/03/10 03:33:16;;;;;;;97.17;62.43;;;;;;;-2.96;60.46;100791.57;127957;1101;22452;-71
2021/03/10 03:35:47;;;;;;;112.80;66.53;;;;;;;-3.02;60.65;100795.27;128235;1099;24382;-73
2021/03/10 03:38:17;;;;;;;91.93;61.53;;;;;;;-3.05;60.90;100789.41;127950;1101;24015;-73
2021/03/10 03:40:50;;;;;;;98.97;62.03;;;;;;;-3.07;60.95;100794.62;128015;1101;23356;-73
2021/03/10 03:43:19;;;;;;;103.35;62.90;;;;;;;-3.10;60.99;100793.05;127962;1101;24601;-73
2021/03/10 03:45:47;;;;;;;99.80;64.75;;;;;;;-3.07;61.33;100792.04;127956;1101;24439;-73
2021/03/10 03:48:19;;;;;;;105.67;64.42;;;;;;;-3.03;61.28;100792.73;127957;1100;22638;-73
2021/03/10 03:50:48;;;;;;;94.97;61.73;;;;;;;-3.03;61.28;100795.32;127981;1100;22502;-73
2021/03/10 03:53:17;;;;;;;100.80;63.73;;;;;;;-3.03;61.30;100793.60;127945;1101;22641;-72
2021/03/10 03:55:45;;;;;;;97.15;62.30;;;;;;;-3.01;61.26;100796.94;127969;1101;22511;-72
2021/03/10 03:58:13;;;;;;;105.80;65.37;;;;;;;-3.01;61.26;100794.35;127953;1100;22500;-72
2021/03/10 04:00:42;;;;;;;93.00;61.15;;;;;;;-3.01;61.42;100791.77;127955;1101;22526;-72
2021/03/10 04:03:10;;;;;;;106.60;67.05;;;;;;;-3.00;61.13;100792.59;127972;1101;22537;-72
2021/03/10 04:05:38;;;;;;;92.80;60.75;;;;;;;-3.01;61.48;100794.35;127954;1099;22516;-73
2021/03/10 04:08:09;;;;;;;98.72;63.13;;;;;;;-3.07;60.87;100794.62;128231;1101;24584;-71
2021/03/10 04:10:39;;;;;;;90.38;65.20;;;;;;;-3.15;61.05;100796.73;128209;1101;22473;-72
2021/03/10 04:13:08;;;;;;;101.00;65.03;;;;;;;-3.21;61.57;100799.59;128007;1101;24347;-72
2021/03/10 04:15:36;;;;;;;98.67;64.80;;;;;;;-3.27;61.43;100808.45;128164;1099;22510;-72
2021/03/10 04:18:05;;;;;;;103.75;67.75;;;;;;;-3.35;61.69;100801.05;128198;1101;22526;-72
2021/03/10 04:20:33;;;;;;;96.57;67.37;;;;;;;-3.42;61.68;100799.64;127944;1101;24870;-72
2021/03/10 04:23:01;;;;;;;107.43;70.08;;;;;;;-3.44;62.10;100796.27;127979;1101;22525;-72
2021/03/10 04:25:29;;;;;;;104.45;72.10;;;;;;;-3.45;62.09;100801.52;127964;1101;22493;-72
2021/03/10 04:27:57;;;;;;;114.77;74.95;;;;;;;-3.44;62.36;100798.02;127960;1100;22570;-74
2021/03/10 04:30:26;;;;;;;145.57;88.78;;;;;;;-3.43;62.28;100797.97;127956;1101;24327;-73
2021/03/10 04:32:54;;;;;;;152.20;93.85;;;;;;;-3.42;62.48;100797.06;127937;1101;22568;-71
2021/03/10 04:35:23;;;;;;;142.20;90.87;;;;;;;-3.37;62.87;100799.42;127974;1100;22567;-72
2021/03/10 04:37:51;;;;;;;130.32;85.42;;;;;;;-3.34;62.58;100800.13;127992;1101;22705;-72
2021/03/10 04:40:20;;;;;;;119.40;79.85;;;;;;;-3.32;62.84;100803.49;127968;1101;22514;-72
2021/03/10 04:42:48;;;;;;;130.18;84.42;;;;;;;-3.31;62.57;100801.74;128027;1101;22549;-72
2021/03/10 04:45:17;;;;;;;120.45;75.47;;;;;;;-3.33;63.00;100795.83;127932;1100;22535;-72
2021/03/10 04:47:46;;;;;;;104.27;68.90;;;;;;;-3.36;62.59;100798.55;127972;1101;24578;-73
2021/03/10 04:50:16;;;;;;;110.75;70.37;;;;;;;-3.44;62.61;100803.19;127976;1101;22570;-72
2021/03/10 04:52:45;;;;;;;101.93;69.00;;;;;;;-3.53;62.46;100806.17;127961;1101;22490;-72
2021/03/10 04:55:13;;;;;;;107.55;71.25;;;;;;;-3.61;62.70;100806.51;127977;1100;22496;-72
2021/03/10 04:57:41;;;;;;;120.00;75.62;;;;;;;-3.66;63.17;100808.47;127953;1101;22727;-73
2021/03/10 05:00:11;;;;;;;205.77;101.18;;;;;;;-3.69;63.21;100809.43;127974;1101;23006;-73
2021/03/10 05:02:40;;;;;;;245.67;115.10;;;;;;;-3.72;63.14;100803.56;128238;1100;22506;-72
2021/03/10 05:05:10;;;;;;;218.67;104.90;;;;;;;-3.71;63.36;100810.39;128169;1101;22472;-72
2021/03/10 05:07:38;;;;;;;238.60;109.35;;;;;;;-3.76;63.57;100805.44;128240;1101;22638;-72
2021/03/10 05:10:09;;;;;;;228.13;106.10;;;;;;;-3.78;63.51;100804.65;127967;1100;22688;-72
2021/03/10 05:12:37;;;;;;;178.10;90.50;;;;;;;-3.75;63.45;100808.85;127958;1101;24591;-71
2021/03/10 05:15:06;;;;;;;116.22;68.52;;;;;;;-3.79;63.59;100819.30;127988;1101;24594;-72
2021/03/10 05:17:36;;;;;;;127.67;70.15;;;;;;;-3.82;63.87;100816.86;127957;1100;25128;-72
2021/03/10 05:20:08;;;;;;;115.65;68.55;;;;;;;-3.87;64.15;100815.36;128248;1100;25103;-72
2021/03/10 05:22:36;;;;;;;139.68;78.90;;;;;;;-3.86;64.00;100814.48;128255;1100;23436;-72
2021/03/10 05:25:09;;;;;;;121.42;77.42;;;;;;;-3.84;64.31;100818.65;127986;1101;22502;-72
2021/03/10 05:27:37;;;;;;;124.60;76.17;;;;;;;-3.82;64.46;100819.44;128152;1101;22525;-73
2021/03/10 05:30:09;;;;;;;106.13;65.90;;;;;;;-3.78;64.44;100825.30;127985;1101;23566;-72
2021/03/10 05:32:37;;;;;;;108.40;68.73;;;;;;;-3.81;64.35;100821.10;128244;1100;26028;-72
2021/03/10 05:35:07;;;;;;;94.32;61.98;;;;;;;-3.80;64.39;100822.80;127969;1101;22645;-72
2021/03/10 05:37:39;;;;;;;104.38;67.12;;;;;;;-3.80;64.57;100820.22;128041;1101;22616;-72
2021/03/10 05:40:08;;;;;;;138.30;86.65;;;;;;;-3.78;64.58;100827.88;127978;1101;22500;-72
2021/03/10 05:42:41;;;;;;;168.70;104.93;;;;;;;-3.77;64.48;100831.30;128011;1101;24571;-72
2021/03/10 05:45:12;;;;;;;132.05;80.45;;;;;;;-3.79;64.65;100834.80;127998;1099;24298;-73
2021/03/10 05:47:40;;;;;;;114.10;76.35;;;;;;;-3.78;64.71;100830.47;128216;1101;22479;-72
2021/03/10 05:50:10;;;;;;;110.45;73.28;;;;;;;-3.77;64.61;100833.88;127993;1101;23254;-72
2021/03/10 05:52:42;;;;;;;116.17;75.37;;;;;;;-3.80;64.39;100830.55;127995;1101;22605;-72
2021/03/10 05:55:11;;;;;;;112.05;77.95;;;;;;;-3.80;64.60;100830.55;128218;1099;22595;-72
2021/03/10 05:57:42;;;;;;;119.15;78.35;;;;;;;-3.80;64.75;100835.71;127939;1101;23486;-72
2021/03/10 06:00:15;;;;;;;122.50;85.53;;;;;;;-3.81;65.29;100834.01;127974;1101;22539;-72
2021/03/10 06:02:43;;;;;;;110.83;78.97;;;;;;;-3.78;65.07;100830.47;128027;1101;22512;-72
2021/03/10 06:05:24;;;;;;;123.95;87.67;;;;;;;-3.71;65.28;100841.38;128013;1100;22522;-72
2021/03/10 06:08:04;;;;;;;125.25;84.42;;;;;;;-3.63;65.79;100847.04;128125;1101;22530;-72
2021/03/10 06:10:47;;;;;;;122.13;81.25;;;;;;;-3.55;65.63;100842.41;128229;1101;25151;-72
2021/03/10 06:13:28;;;;;;;119.45;74.50;;;;;;;-3.56;65.30;100845.91;127960;1101;24441;-72
2021/03/10 06:15:59;;;;;;;114.95;77.97;;;;;;;-3.53;65.32;100845.77;128158;1099;22505;-72
2021/03/10 06:18:35;;;;;;;124.58;82.55;;;;;;;-3.49;65.47;100849.06;128018;1101;22599;-72
2021/03/10 06:21:12;;;;;;;124.97;80.75;;;;;;;-3.44;65.53;100845.35;127981;1101;22485;-73
2021/03/10 06:23:54;;;;;;;123.20;81.15;;;;;;;-3.37;65.40;100849.34;127913;1101;22518;-72
2021/03/10 06:26:28;;;;;;;127.72;85.92;;;;;;;-3.32;65.46;100850.00;128082;1101;22492;-72
2021/03/10 06:29:01;;;;;;;131.93;82.30;;;;;;;-3.21;65.57;100859.02;128134;1101;22542;-73
2021/03/10 06:31:38;;;;;;;118.02;73.70;;;;;;;-3.14;65.42;100860.42;127968;1101;22573;-72
2021/03/10 06:34:15;;;;;;;114.67;77.30;;;;;;;-3.12;65.57;100859.45;128325;1101;24353;-72
2021/03/10 06:36:47;;;;;;;128.57;82.65;;;;;;;-3.05;65.44;100860.02;127957;1101;22487;-72
2021/03/10 06:39:32;;;;;;;139.10;91.15;;;;;;;-2.96;65.69;100864.79;127978;1101;22492;-71
2021/03/10 06:42:00;;;;;;;135.32;87.78;;;;;;;-2.89;65.77;100871.36;128175;1100;23108;-70
2021/03/10 06:44:31;;;;;;;139.67;95.37;;;;;;;-2.75;65.34;100872.48;128123;1101;22493;-71
2021/03/10 06:47:05;;;;;;;128.20;88.62;;;;;;;-2.65;65.65;100876.31;127967;1101;22516;-72
2021/03/10 06:49:35;;;;;;;135.28;89.92;;;;;;;-2.54;65.57;100886.99;128146;1101;22616;-71
2021/03/10 06:52:09;;;;;;;157.78;98.10;;;;;;;-2.39;65.74;100878.53;127988;1101;22469;-70
2021/03/10 06:54:37;;;;;;;180.77;112.77;;;;;;;-2.24;65.31;100886.47;127969;1101;23255;-71
2021/03/10 06:57:09;;;;;;;176.30;112.62;;;;;;;-2.07;65.18;100894.27;127942;1101;22583;-71
2021/03/10 07:00:07;;;;;;;148.53;97.43;;;;;;;-1.91;65.34;100891.78;128018;1100;22501;-71
2021/03/10 07:02:36;;;;;;;131.43;86.22;;;;;;;-1.75;65.10;100892.70;128208;1101;24295;-72
2021/03/10 07:05:05;;;;;;;128.07;86.05;;;;;;;-1.54;64.93;100900.33;128051;1101;22473;-71
2021/03/10 07:07:35;;;;;;;136.12;86.42;;;;;;;-1.37;64.79;100900.30;128186;1099;22617;-71
2021/03/10 07:10:22;;;;;;;175.57;106.05;;;;;;;-1.16;64.55;100898.39;128020;1100;23524;-71
2021/03/10 07:12:51;;;;;;;170.05;106.83;;;;;;;-0.86;64.75;100902.89;128214;1101;25100;-71
2021/03/10 07:15:19;;;;;;;150.07;94.45;;;;;;;-0.54;64.99;100895.96;128198;1100;22550;-71
2021/03/10 07:17:49;;;;;;;168.75;98.55;;;;;;;-0.19;64.75;100900.99;128193;1099;22617;-71
2021/03/10 07:20:20;;;;;;;159.95;99.77;;;;;;;0.23;64.14;100897.70;128017;1101;24268;-71
2021/03/10 07:22:57;;;;;;;150.93;96.28;;;;;;;0.63;64.44;100901.45;128081;1101;22489;-71
2021/03/10 07:25:42;;;;;;;115.65;81.63;;;;;;;1.05;63.18;100904.16;128008;1099;22475;-71
2021/03/10 07:28:20;;;;;;;109.72;76.72;;;;;;;1.43;62.53;100906.17;128003;1101;22633;-71
2021/03/10 07:30:49;;;;;;;115.82;81.78;;;;;;;1.79;61.91;100906.45;128029;1101;22487;-71
2021/03/10 07:33:21;;;;;;;102.75;74.12;;;;;;;2.26;61.95;100906.92;127948;1100;22616;-71
2021/03/10 07:36:02;;;;;;;99.58;72.10;;;;;;;2.48;59.69;100911.57;127993;1101;22530;-71
2021/03/10 07:38:36;;;;;;;98.82;72.75;;;;;;;2.77;59.48;100912.23;128204;1099;24604;-71
2021/03/10 07:41:11;;;;;;;101.50;75.10;;;;;;;3.01;57.63;100910.55;128157;1099;22496;-71
2021/03/10 07:43:50;;;;;;;111.83;82.15;;;;;;;3.33;58.06;100909.25;128213;1100;22503;-71
2021/03/10 07:46:34;;;;;;;113.30;79.70;;;;;;;3.60;57.23;100909.94;127983;1101;24337;-72
2021/03/10 07:49:23;;;;;;;118.95;83.80;;;;;;;3.86;55.69;100915.05;127959;1099;24578;-70
2021/03/10 07:52:20;;;;;;;122.40;89.50;;;;;;;4.08;55.69;100923.02;127980;1100;22559;-71
2021/03/10 07:55:00;;;;;;;126.92;87.35;;;;;;;4.38;54.34;100913.86;127955;1101;22515;-71
2021/03/10 07:57:29;;;;;;;103.60;76.65;;;;;;;4.63;54.08;100929.41;128011;1101;22504;-71
2021/03/10 08:00:00;;;;;;;107.92;82.15;;;;;;;4.85;53.07;100922.53;127928;1099;23462;-70
2021/03/10 08:02:42;;;;;;;98.95;77.00;;;;;;;5.09;52.69;100917.20;128046;1101;23238;-70
2021/03/10 08:05:26;;;;;;;86.85;68.07;;;;;;;5.26;51.58;100916.72;128034;1100;22501;-72
2021/03/10 08:08:10;;;;;;;87.78;65.83;;;;;;;5.42;50.79;100917.19;128009;1100;24572;-71
2021/03/10 08:10:40;;;;;;;89.22;68.80;;;;;;;5.65;50.17;100912.75;128191;1100;23028;-71
2021/03/10 08:13:21;;;;;;;86.95;66.50;;;;;;;5.98;49.91;100916.28;128065;1099;22525;-71
2021/03/10 08:16:01;;;;;;;85.35;65.57;;;;;;;6.40;49.67;100923.38;128207;1101;22616;-71
2021/03/10 08:18:33;;;;;;;82.37;62.55;;;;;;;6.73;49.28;100914.48;128001;1101;22505;-71
2021/03/10 08:21:09;;;;;;;79.80;64.95;;;;;;;7.12;48.54;100917.33;128046;1101;24344;-71
2021/03/10 08:23:37;;;;;;;82.50;63.02;;;;;;;7.14;46.42;100928.55;128281;1099;22629;-71
2021/03/10 08:26:07;;;;;;;92.08;68.10;;;;;;;7.40;46.60;100918.42;127960;1101;22499;-72
2021/03/10 08:28:40;;;;;;;96.28;69.10;;;;;;;7.69;45.66;100913.22;127942;1101;23252;-71
2021/03/10 08:31:11;;;;;;;83.35;67.58;;;;;;;7.86;44.88;100909.09;127911;1100;22508;-72
2021/03/10 08:33:50;;;;;;;89.52;69.87;;;;;;;8.04;45.16;100906.64;127962;1101;22601;-71
2021/03/10 08:36:32;;;;;;;85.77;60.67;;;;;;;8.14;43.94;100915.37;127922;1101;24350;-71
2021/03/10 08:39:08;;;;;;;73.30;57.95;;;;;;;8.08;43.35;100908.02;127960;1101;22498;-70
2021/03/10 08:41:52;;;;;;;78.52;56.53;;;;;;;8.36;43.34;100906.34;127944;1101;22739;-72
2021/03/10 08:44:23;;;;;;;69.62;57.45;;;;;;;8.78;43.05;100909.51;127936;1101;24635;-71
2021/03/10 08:46:54;;;;;;;75.97;55.98;;;;;;;9.04;41.66;100900.98;127966;1101;22492;-70
2021/03/10 08:49:31;;;;;;;72.42;58.13;;;;;;;9.35;41.44;100905.00;127920;1101;22502;-72
2021/03/10 08:52:08;;;;;;;73.28;60.50;;;;;;;9.59;40.53;100906.26;127983;1101;22558;-72
2021/03/10 08:54:59;;;;;;;74.27;58.75;;;;;;;9.77;40.09;100906.30;127998;1101;23254;-71
2021/03/10 08:57:33;;;;;;;73.28;58.65;;;;;;;10.05;40.20;100909.70;128032;1100;22635;-72
2021/03/10 09:00:17;;;;;;;75.97;58.92;;;;;;;10.38;39.49;100913.50;128200;1101;22520;-71
2021/03/10 09:02:49;;;;;;;83.33;66.05;;;;;;;10.55;38.89;100909.17;127993;1100;22619;-71
2021/03/10 09:05:27;;;;;;;71.28;58.98;;;;;;;10.77;38.04;100903.39;128206;1100;22525;-72
2021/03/10 09:07:58;;;;;;;75.15;57.70;;;;;;;10.95;37.56;100911.25;127980;1100;22512;-71
2021/03/10 09:10:27;;;;;;;74.12;60.23;;;;;;;11.09;37.12;100907.19;127916;1101;22484;-71
2021/03/10 09:13:04;;;;;;;72.00;59.80;;;;;;;11.23;36.54;100903.12;128091;1101;24091;-71
2021/03/10 09:15:33;;;;;;;71.10;55.00;;;;;;;11.40;36.56;100898.75;127945;1101;22489;-71
2021/03/10 09:18:12;;;;;;;71.33;60.90;;;;;;;11.73;36.77;100899.69;128222;1101;22485;-71
2021/03/10 09:20:48;;;;;;;67.70;54.47;;;;;;;11.89;35.63;100901.55;127945;1099;22576;-71
2021/03/10 09:23:27;;;;;;;69.97;55.50;;;;;;;12.18;35.70;100899.27;128028;1100;22539;-71
2021/03/10 09:26:01;;;;;;;61.92;50.90;;;;;;;12.45;34.88;100900.75;127953;1101;22499;-71
2021/03/10 09:28:40;;;;;;;67.60;55.23;;;;;;;12.52;34.26;100895.62;127965;1101;24465;-71
2021/03/10 09:31:22;;;;;;;62.62;51.25;;;;;;;12.06;33.05;100902.40;128190;1100;22628;-71
2021/03/10 09:34:05;;;;;;;68.72;55.35;;;;;;;11.86;34.18;100896.58;128193;1100;22519;-71
2021/03/10 09:36:38;;;;;;;63.48;50.67;;;;;;;11.78;34.06;100900.84;128050;1100;22623;-71
2021/03/10 09:39:11;;;;;;;70.08;54.98;;;;;;;11.87;34.03;100895.61;128198;1101;24494;-71
2021/03/10 09:41:50;;;;;;;61.13;47.45;;;;;;;11.98;33.37;100905.88;127970;1101;24453;-71
2021/03/10 09:44:24;;;;;;;57.17;46.58;;;;;;;11.98;33.06;100906.70;128195;1100;23253;-71
2021/03/10 09:46:52;;;;;;;61.53;47.23;;;;;;;12.12;32.95;100907.87;127962;1101;22492;-71
2021/03/10 09:49:22;;;;;;;99.15;63.15;;;;;;;12.16;32.17;100906.57;128166;1101;24354;-71
2021/03/10 09:51:51;;;;;;;41.88;31.12;;;;;;;12.32;31.74;100905.72;128132;1101;24334;-71
2021/03/10 09:54:26;;;;;;;36.03;28.17;;;;;;;12.33;30.75;100912.70;128247;1100;23496;-71
2021/03/10 09:57:02;;;;;;;40.52;32.48;;;;;;;12.12;29.84;100904.39;128134;1101;24645;-71
2021/03/10 09:59:40;;;;;;;47.57;36.70;;;;;;;12.09;30.69;100904.72;128105;1099;22523;-71
2021/03/10 10:02:17;;;;;;;36.68;29.60;;;;;;;12.23;30.70;100907.56;128178;1101;22521;-71
2021/03/10 10:05:04;;;;;;;44.50;32.60;;;;;;;12.31;30.33;100913.85;127909;1101;23551;-71
2021/03/10 10:07:33;;;;;;;48.73;35.03;;;;;;;12.15;30.22;100928.73;128227;1101;22494;-71
2021/03/10 10:10:05;;;;;;;49.40;37.70;;;;;;;12.06;30.00;100923.59;128198;1100;23246;-72
2021/03/10 10:12:54;;;;;;;41.25;34.33;;;;;;;12.20;30.40;100926.43;128093;1101;22529;-72
2021/03/10 10:15:42;;;;;;;29.80;23.47;;;;;;;12.30;30.00;100936.05;128178;1099;22527;-71
2021/03/10 10:18:15;;;;;;;24.70;17.98;;;;;;;12.33;29.25;100928.59;128222;1099;22505;-71
2021/03/10 10:20:48;;;;;;;30.97;21.15;;;;;;;12.35;29.00;100931.06;128005;1101;24428;-72
2021/03/10 10:23:19;;;;;;;27.02;20.90;;;;;;;12.22;28.20;100937.67;127999;1101;23371;-74
2021/03/10 10:26:02;;;;;;;22.67;16.17;;;;;;;11.92;27.61;100935.64;127991;1099;22511;-72
2021/03/10 10:28:31;;;;;;;25.32;16.87;;;;;;;11.52;28.17;100937.14;127903;1101;23506;-73
2021/03/10 10:31:01;;;;;;;43.78;23.25;;;;;;;11.38;28.06;100941.22;127955;1101;22512;-77
2021/03/10 10:33:34;;;;;;;29.70;20.65;;;;;;;11.47;28.80;100942.10;128132;1100;22530;-72
2021/03/10 10:36:03;;;;;;;27.95;20.35;;;;;;;11.30;28.00;100935.91;128175;1099;24474;-73
2021/03/10 10:38:32;;;;;;;30.40;20.37;;;;;;;11.10;28.33;100943.24;128110;1101;24574;-72
2021/03/10 10:41:03;;;;;;;20.62;15.58;;;;;;;11.14;28.30;100939.30;127931;1101;22524;-71
2021/03/10 10:43:34;;;;;;;26.12;16.20;;;;;;;11.15;27.76;100937.47;128213;1099;22492;-71
2021/03/10 10:46:04;;;;;;;32.60;21.85;;;;;;;11.41;28.19;100932.97;127994;1101;22549;-71
2021/03/10 10:48:38;;;;;;;14.45;8.53;;;;;;;11.35;26.88;100938.06;128157;1101;22500;-72
2021/03/10 10:51:11;;;;;;;12.10;7.78;;;;;;;11.67;27.08;100930.27;128205;1101;22523;-71
2021/03/10 10:53:46;;;;;;;23.10;12.13;;;;;;;11.92;26.46;100938.30;128044;1101;22490;-72
2021/03/10 10:56:15;;;;;;;22.20;16.32;;;;;;;12.08;25.84;100929.55;128319;1101;22503;-71
2021/03/10 10:58:43;;;;;;;25.40;19.57;;;;;;;11.93;26.06;100930.20;128081;1101;22470;-71
2021/03/10 11:01:11;;;;;;;26.12;19.57;;;;;;;11.80;25.47;100921.05;128044;1101;22535;-72
2021/03/10 11:03:40;;;;;;;28.62;20.75;;;;;;;11.74;26.06;100918.03;128055;1101;22500;-73
2021/03/10 11:06:10;;;;;;;27.00;19.30;;;;;;;11.67;26.59;100927.62;128279;1100;22649;-72
2021/03/10 11:08:42;;;;;;;29.27;21.07;;;;;;;11.60;25.95;100926.61;128330;1099;22508;-72
2021/03/10 11:11:11;;;;;;;27.00;19.90;;;;;;;11.45;26.03;100933.48;128312;1099;24195;-73
2021/03/10 11:13:49;;;;;;;29.42;17.85;;;;;;;11.31;26.13;100921.69;128303;1101;22498;-73
2021/03/10 11:16:27;;;;;;;21.27;16.10;;;;;;;10.93;25.64;100922.95;128265;1100;22626;-73
2021/03/10 11:19:06;;;;;;;22.25;17.00;;;;;;;10.52;26.16;100931.44;128236;1100;22581;-71
2021/03/10 11:21:37;;;;;;;25.23;17.70;;;;;;;10.15;25.74;100913.09;128272;1100;24481;-74
2021/03/10 11:24:10;;;;;;;37.17;20.37;;;;;;;9.64;26.28;100911.94;127961;1101;22502;-75